sensor_id;sensor_type;location;lat;lon;timestamp;pressure;altitude;pressure_sealevel;temperature;humidity
35806;BME280;21925;44.608;11.580;2022-08-19T00:00:25;100930.16;;;25.72;100.00
35806;BME280;21925;44.608;11.580;2022-08-19T00:02:53;100965.66;;;25.66;100.00
35806;BME280;21925;44.608;11.580;2022-08-19T00:05:20;100965.47;;;26.14;100.00
35806;BME280;21925;44.608;11.580;2022-08-19T00:07:47;100960.44;;;26.34;100.00
35806;BME280;21925;44.608;11.580;2022-08-19T00:10:16;100930.75;;;26.08;99.22
35806;BME280;21925;44.608;11.580;2022-08-19T00:12:41;100905.97;;;25.62;100.00
35806;BME280;21925;44.608;11.580;2022-08-19T00:15:10;100885.56;;;25.74;100.00
35806;BME280;21925;44.608;11.580;2022-08-19T00:17:40;100888.59;;;25.67;100.00
35806;BME280;21925;44.608;11.580;2022-08-19T00:20:07;100923.53;;;26.07;100.00
35806;BME280;21925;44.608;11.580;2022-08-19T00:22:33;100965.56;;;25.98;100.00
35806;BME280;21925;44.608;11.580;2022-08-19T00:24:59;100964.47;;;26.08;100.00
35806;BME280;21925;44.608;11.580;2022-08-19T00:27:25;100951.16;;;25.96;100.00
35806;BME280;21925;44.608;11.580;2022-08-19T00:29:50;100953.94;;;25.83;100.00
35806;BME280;21925;44.608;11.580;2022-08-19T00:32:16;100950.34;;;25.10;100.00
35806;BME280;21925;44.608;11.580;2022-08-19T00:34:42;100938.91;;;24.86;100.00
35806;BME280;21925;44.608;11.580;2022-08-19T00:37:09;100913.16;;;24.23;100.00
35806;BME280;21925;44.608;11.580;2022-08-19T00:39:35;100922.47;;;24.36;100.00
35806;BME280;21925;44.608;11.580;2022-08-19T00:42:01;100967.06;;;24.82;100.00
35806;BME280;21925;44.608;11.580;2022-08-19T00:44:28;100965.47;;;24.97;100.00
35806;BME280;21925;44.608;11.580;2022-08-19T00:46:57;100958.66;;;24.98;100.00
35806;BME280;21925;44.608;11.580;2022-08-19T00:49:37;100971.00;;;24.69;100.00
35806;BME280;21925;44.608;11.580;2022-08-19T00:52:19;100977.59;;;24.43;100.00
35806;BME280;21925;44.608;11.580;2022-08-19T00:54:47;100973.28;;;24.38;100.00
35806;BME280;21925;44.608;11.580;2022-08-19T00:57:15;100971.41;;;24.32;100.00
35806;BME280;21925;44.608;11.580;2022-08-19T00:59:46;100970.09;;;24.36;100.00
35806;BME280;21925;44.608;11.580;2022-08-19T01:02:14;100997.31;;;24.20;100.00
35806;BME280;21925;44.608;11.580;2022-08-19T01:05:09;100997.63;;;24.06;100.00
35806;BME280;21925;44.608;11.580;2022-08-19T01:07:37;100980.16;;;23.79;100.00
35806;BME280;21925;44.608;11.580;2022-08-19T01:10:07;100942.03;;;23.85;100.00
35806;BME280;21925;44.608;11.580;2022-08-19T01:12:34;100931.25;;;24.03;100.00
35806;BME280;21925;44.608;11.580;2022-08-19T01:15:01;100927.41;;;24.13;100.00
35806;BME280;21925;44.608;11.580;2022-08-19T01:17:27;100915.13;;;24.07;100.00
35806;BME280;21925;44.608;11.580;2022-08-19T01:19:53;100891.84;;;24.10;100.00
35806;BME280;21925;44.608;11.580;2022-08-19T01:24:53;100892.72;;;24.07;100.00
35806;BME280;21925;44.608;11.580;2022-08-19T01:27:19;100901.25;;;24.35;100.00
35806;BME280;21925;44.608;11.580;2022-08-19T01:29:45;100890.31;;;24.41;100.00
35806;BME280;21925;44.608;11.580;2022-08-19T01:32:14;100880.50;;;24.33;100.00
35806;BME280;21925;44.608;11.580;2022-08-19T01:34:40;100864.63;;;24.46;100.00
35806;BME280;21925;44.608;11.580;2022-08-19T01:37:08;100861.44;;;24.76;100.00
35806;BME280;21925;44.608;11.580;2022-08-19T01:39:38;100872.53;;;25.11;98.18
35806;BME280;21925;44.608;11.580;2022-08-19T01:42:05;100855.34;;;24.93;99.71
35806;BME280;21925;44.608;11.580;2022-08-19T01:44:32;100833.53;;;25.00;99.53
35806;BME280;21925;44.608;11.580;2022-08-19T01:46:58;100848.56;;;25.06;100.00
35806;BME280;21925;44.608;11.580;2022-08-19T01:49:24;100844.19;;;25.21;100.00
35806;BME280;21925;44.608;11.580;2022-08-19T01:51:52;100863.50;;;25.19;98.13
35806;BME280;21925;44.608;11.580;2022-08-19T01:54:21;100848.56;;;25.22;98.36
35806;BME280;21925;44.608;11.580;2022-08-19T01:56:47;100830.31;;;25.43;99.12
35806;BME280;21925;44.608;11.580;2022-08-19T01:59:18;100842.13;;;25.38;99.45
35806;BME280;21925;44.608;11.580;2022-08-19T02:01:44;100851.50;;;25.60;98.43
35806;BME280;21925;44.608;11.580;2022-08-19T02:04:10;100870.81;;;25.70;96.69
35806;BME280;21925;44.608;11.580;2022-08-19T02:06:37;100867.69;;;25.68;98.16
35806;BME280;21925;44.608;11.580;2022-08-19T02:09:07;100882.13;;;25.54;100.00
35806;BME280;21925;44.608;11.580;2022-08-19T02:11:35;100880.75;;;25.46;100.00
35806;BME280;21925;44.608;11.580;2022-08-19T02:14:04;100883.84;;;25.64;100.00
35806;BME280;21925;44.608;11.580;2022-08-19T02:16:31;100862.56;;;25.51;100.00
35806;BME280;21925;44.608;11.580;2022-08-19T02:18:57;100844.63;;;25.48;100.00
35806;BME280;21925;44.608;11.580;2022-08-19T02:21:26;100831.00;;;25.34;100.00
35806;BME280;21925;44.608;11.580;2022-08-19T02:23:52;100814.59;;;25.45;98.44
35806;BME280;21925;44.608;11.580;2022-08-19T02:26:22;100814.59;;;25.45;100.00
35806;BME280;21925;44.608;11.580;2022-08-19T02:28:49;100812.34;;;25.40;100.00
35806;BME280;21925;44.608;11.580;2022-08-19T02:31:17;100798.44;;;25.37;100.00
35806;BME280;21925;44.608;11.580;2022-08-19T02:33:44;100800.88;;;25.35;99.79
35806;BME280;21925;44.608;11.580;2022-08-19T02:36:12;100801.75;;;25.19;100.00
35806;BME280;21925;44.608;11.580;2022-08-19T02:38:39;100815.19;;;25.12;100.00
35806;BME280;21925;44.608;11.580;2022-08-19T02:41:11;100818.94;;;25.05;100.00
35806;BME280;21925;44.608;11.580;2022-08-19T02:43:38;100824.31;;;25.28;100.00
35806;BME280;21925;44.608;11.580;2022-08-19T02:46:32;100836.81;;;25.27;100.00
35806;BME280;21925;44.608;11.580;2022-08-19T02:49:01;100838.28;;;25.32;100.00
35806;BME280;21925;44.608;11.580;2022-08-19T02:51:31;100826.13;;;25.22;100.00
35806;BME280;21925;44.608;11.580;2022-08-19T02:53:57;100825.19;;;24.97;100.00
35806;BME280;21925;44.608;11.580;2022-08-19T02:56:25;100834.31;;;25.29;100.00
35806;BME280;21925;44.608;11.580;2022-08-19T02:58:53;100828.44;;;25.40;100.00
35806;BME280;21925;44.608;11.580;2022-08-19T03:01:23;100825.66;;;25.52;100.00
35806;BME280;21925;44.608;11.580;2022-08-19T03:03:50;100822.94;;;25.61;100.00
35806;BME280;21925;44.608;11.580;2022-08-19T03:06:16;100823.06;;;25.70;100.00
35806;BME280;21925;44.608;11.580;2022-08-19T03:08:44;100825.22;;;25.66;100.00
35806;BME280;21925;44.608;11.580;2022-08-19T03:11:20;100816.81;;;25.66;98.91
35806;BME280;21925;44.608;11.580;2022-08-19T03:13:47;100809.69;;;25.49;100.00
35806;BME280;21925;44.608;11.580;2022-08-19T03:16:14;100811.53;;;25.68;100.00
35806;BME280;21925;44.608;11.580;2022-08-19T03:18:41;100807.03;;;25.71;100.00
35806;BME280;21925;44.608;11.580;2022-08-19T03:21:07;100832.19;;;25.74;99.66
35806;BME280;21925;44.608;11.580;2022-08-19T03:23:32;100838.16;;;25.64;97.72
35806;BME280;21925;44.608;11.580;2022-08-19T03:26:03;100823.88;;;25.71;100.00
35806;BME280;21925;44.608;11.580;2022-08-19T03:28:30;100814.41;;;25.65;100.00
35806;BME280;21925;44.608;11.580;2022-08-19T03:31:03;100837.00;;;25.74;100.00
35806;BME280;21925;44.608;11.580;2022-08-19T03:33:31;100850.09;;;25.80;100.00
35806;BME280;21925;44.608;11.580;2022-08-19T03:36:18;100845.25;;;25.93;98.31
35806;BME280;21925;44.608;11.580;2022-08-19T03:38:47;100841.84;;;25.73;100.00
35806;BME280;21925;44.608;11.580;2022-08-19T03:41:16;100847.75;;;25.91;100.00
35806;BME280;21925;44.608;11.580;2022-08-19T03:43:44;100841.16;;;25.69;100.00
35806;BME280;21925;44.608;11.580;2022-08-19T03:46:17;100833.88;;;25.72;100.00
35806;BME280;21925;44.608;11.580;2022-08-19T03:48:46;100829.59;;;25.55;100.00
35806;BME280;21925;44.608;11.580;2022-08-19T03:51:18;100823.06;;;25.58;100.00
35806;BME280;21925;44.608;11.580;2022-08-19T03:53:45;100802.09;;;25.21;100.00
35806;BME280;21925;44.608;11.580;2022-08-19T03:56:12;100807.53;;;25.41;100.00
35806;BME280;21925;44.608;11.580;2022-08-19T03:58:39;100796.47;;;25.21;100.00
35806;BME280;21925;44.608;11.580;2022-08-19T04:01:11;100815.41;;;25.46;100.00
35806;BME280;21925;44.608;11.580;2022-08-19T04:03:38;100804.41;;;25.39;100.00
35806;BME280;21925;44.608;11.580;2022-08-19T04:08:45;100825.13;;;25.70;100.00
35806;BME280;21925;44.608;11.580;2022-08-19T04:11:18;100822.94;;;25.61;100.00
35806;BME280;21925;44.608;11.580;2022-08-19T04:13:44;100812.47;;;25.78;100.00
35806;BME280;21925;44.608;11.580;2022-08-19T04:16:11;100812.47;;;26.02;100.00
35806;BME280;21925;44.608;11.580;2022-08-19T04:18:38;100811.00;;;25.85;100.00
35806;BME280;21925;44.608;11.580;2022-08-19T04:21:05;100808.38;;;25.66;100.00
35806;BME280;21925;44.608;11.580;2022-08-19T04:23:31;100807.63;;;25.78;100.00
35806;BME280;21925;44.608;11.580;2022-08-19T04:25:58;100813.56;;;25.80;100.00
35806;BME280;21925;44.608;11.580;2022-08-19T04:28:24;100815.09;;;25.56;100.00
35806;BME280;21925;44.608;11.580;2022-08-19T04:30:52;100828.84;;;25.38;100.00
35806;BME280;21925;44.608;11.580;2022-08-19T04:33:20;100829.09;;;25.44;100.00
35806;BME280;21925;44.608;11.580;2022-08-19T04:35:48;100844.84;;;25.54;100.00
35806;BME280;21925;44.608;11.580;2022-08-19T04:38:17;100847.28;;;25.80;100.00
35806;BME280;21925;44.608;11.580;2022-08-19T04:40:46;100845.13;;;25.72;100.00
35806;BME280;21925;44.608;11.580;2022-08-19T04:43:31;100836.75;;;25.84;100.00
35806;BME280;21925;44.608;11.580;2022-08-19T04:45:57;100828.31;;;25.84;100.00
35806;BME280;21925;44.608;11.580;2022-08-19T04:48:23;100830.56;;;25.89;100.00
35806;BME280;21925;44.608;11.580;2022-08-19T04:50:56;100840.56;;;25.90;100.00
35806;BME280;21925;44.608;11.580;2022-08-19T04:53:32;100843.03;;;26.25;100.00
35806;BME280;21925;44.608;11.580;2022-08-19T04:55:59;100827.84;;;26.35;100.00
35806;BME280;21925;44.608;11.580;2022-08-19T04:58:30;100830.91;;;26.28;100.00
35806;BME280;21925;44.608;11.580;2022-08-19T05:00:55;100821.91;;;26.46;100.00
35806;BME280;21925;44.608;11.580;2022-08-19T05:03:21;100817.50;;;26.57;100.00
35806;BME280;21925;44.608;11.580;2022-08-19T05:05:48;100819.53;;;26.57;100.00
35806;BME280;21925;44.608;11.580;2022-08-19T05:08:16;100812.47;;;26.40;100.00
35806;BME280;21925;44.608;11.580;2022-08-19T05:10:50;100815.75;;;26.72;100.00
35806;BME280;21925;44.608;11.580;2022-08-19T05:13:17;100813.31;;;26.62;100.00
35806;BME280;21925;44.608;11.580;2022-08-19T05:15:44;100800.63;;;26.57;100.00
35806;BME280;21925;44.608;11.580;2022-08-19T05:18:10;100793.44;;;26.31;100.00
35806;BME280;21925;44.608;11.580;2022-08-19T05:20:55;100786.91;;;26.34;100.00
35806;BME280;21925;44.608;11.580;2022-08-19T05:23:40;100786.25;;;26.43;100.00
35806;BME280;21925;44.608;11.580;2022-08-19T05:26:06;100773.53;;;26.26;100.00
35806;BME280;21925;44.608;11.580;2022-08-19T05:28:32;100788.41;;;26.39;100.00
35806;BME280;21925;44.608;11.580;2022-08-19T05:30:57;100779.13;;;26.38;100.00
35806;BME280;21925;44.608;11.580;2022-08-19T05:33:23;100783.44;;;26.43;100.00
35806;BME280;21925;44.608;11.580;2022-08-19T05:35:50;100769.31;;;26.09;100.00
35806;BME280;21925;44.608;11.580;2022-08-19T05:38:17;100775.34;;;26.20;100.00
35806;BME280;21925;44.608;11.580;2022-08-19T05:40:43;100780.31;;;26.41;100.00
35806;BME280;21925;44.608;11.580;2022-08-19T05:43:14;100789.19;;;26.39;100.00
35806;BME280;21925;44.608;11.580;2022-08-19T05:45:41;100787.91;;;26.53;100.00
35806;BME280;21925;44.608;11.580;2022-08-19T05:48:11;100789.59;;;26.38;100.00
35806;BME280;21925;44.608;11.580;2022-08-19T05:50:39;100781.84;;;26.42;100.00
35806;BME280;21925;44.608;11.580;2022-08-19T05:53:05;100776.81;;;26.24;100.00
35806;BME280;21925;44.608;11.580;2022-08-19T05:55:31;100796.47;;;26.37;100.00
35806;BME280;21925;44.608;11.580;2022-08-19T05:57:57;100796.47;;;26.37;100.00
35806;BME280;21925;44.608;11.580;2022-08-19T06:00:24;100805.81;;;26.46;100.00
35806;BME280;21925;44.608;11.580;2022-08-19T06:02:49;100832.16;;;26.15;100.00
35806;BME280;21925;44.608;11.580;2022-08-19T06:05:16;100845.06;;;25.47;100.00
35806;BME280;21925;44.608;11.580;2022-08-19T06:07:42;100845.06;;;24.58;100.00
35806;BME280;21925;44.608;11.580;2022-08-19T06:10:10;100849.09;;;23.90;100.00
35806;BME280;21925;44.608;11.580;2022-08-19T06:12:39;100859.97;;;23.49;100.00
35806;BME280;21925;44.608;11.580;2022-08-19T06:15:08;100876.22;;;22.21;100.00
35806;BME280;21925;44.608;11.580;2022-08-19T06:17:34;100876.72;;;21.56;100.00
35806;BME280;21925;44.608;11.580;2022-08-19T06:20:03;100867.31;;;21.06;100.00
35806;BME280;21925;44.608;11.580;2022-08-19T06:22:29;100867.00;;;20.54;100.00
35806;BME280;21925;44.608;11.580;2022-08-19T06:24:55;100888.13;;;20.51;100.00
35806;BME280;21925;44.608;11.580;2022-08-19T06:27:22;100889.72;;;19.95;100.00
35806;BME280;21925;44.608;11.580;2022-08-19T06:29:49;100912.13;;;21.63;100.00
35806;BME280;21925;44.608;11.580;2022-08-19T06:32:16;100957.09;;;21.71;100.00
35806;BME280;21925;44.608;11.580;2022-08-19T06:34:43;100938.38;;;22.28;100.00
35806;BME280;21925;44.608;11.580;2022-08-19T06:37:09;100891.66;;;22.29;100.00
35806;BME280;21925;44.608;11.580;2022-08-19T06:39:37;100916.66;;;22.88;100.00
35806;BME280;21925;44.608;11.580;2022-08-19T06:42:05;100915.00;;;22.45;100.00
35806;BME280;21925;44.608;11.580;2022-08-19T06:44:35;100889.56;;;23.08;100.00
35806;BME280;21925;44.608;11.580;2022-08-19T06:47:07;100884.25;;;23.14;100.00
35806;BME280;21925;44.608;11.580;2022-08-19T06:49:35;100906.34;;;23.70;95.98
35806;BME280;21925;44.608;11.580;2022-08-19T06:52:02;100905.91;;;25.05;89.57
35806;BME280;21925;44.608;11.580;2022-08-19T06:54:28;100926.31;;;25.09;85.46
35806;BME280;21925;44.608;11.580;2022-08-19T06:56:55;100945.31;;;24.86;84.77
35806;BME280;21925;44.608;11.580;2022-08-19T06:59:24;100937.97;;;25.52;82.47
35806;BME280;21925;44.608;11.580;2022-08-19T07:01:55;100942.38;;;25.94;80.95
35806;BME280;21925;44.608;11.580;2022-08-19T07:04:30;100927.03;;;26.23;79.53
35806;BME280;21925;44.608;11.580;2022-08-19T07:07:07;100941.19;;;26.20;79.85
35806;BME280;21925;44.608;11.580;2022-08-19T07:09:36;100957.22;;;26.48;78.54
35806;BME280;21925;44.608;11.580;2022-08-19T07:12:07;100970.59;;;26.44;78.45
35806;BME280;21925;44.608;11.580;2022-08-19T07:14:35;100982.50;;;26.35;78.10
35806;BME280;21925;44.608;11.580;2022-08-19T07:17:05;100989.97;;;26.13;79.02
35806;BME280;21925;44.608;11.580;2022-08-19T07:19:33;101003.69;;;26.52;77.02
35806;BME280;21925;44.608;11.580;2022-08-19T07:22:02;101021.47;;;26.21;78.22
35806;BME280;21925;44.608;11.580;2022-08-19T07:24:31;101043.03;;;26.40;77.13
35806;BME280;21925;44.608;11.580;2022-08-19T07:27:00;101041.78;;;26.00;78.77
35806;BME280;21925;44.608;11.580;2022-08-19T07:29:33;101039.66;;;25.60;80.85
35806;BME280;21925;44.608;11.580;2022-08-19T07:32:01;101031.31;;;25.56;81.76
35806;BME280;21925;44.608;11.580;2022-08-19T07:34:29;101026.78;;;25.90;81.94
35806;BME280;21925;44.608;11.580;2022-08-19T07:36:55;101022.84;;;25.88;81.40
35806;BME280;21925;44.608;11.580;2022-08-19T07:39:27;101004.31;;;25.46;82.23
35806;BME280;21925;44.608;11.580;2022-08-19T07:41:59;101010.31;;;25.77;81.99
35806;BME280;21925;44.608;11.580;2022-08-19T07:44:25;100992.34;;;25.58;82.83
35806;BME280;21925;44.608;11.580;2022-08-19T07:46:55;100993.78;;;25.50;83.12
35806;BME280;21925;44.608;11.580;2022-08-19T07:49:22;100989.34;;;25.65;82.90
35806;BME280;21925;44.608;11.580;2022-08-19T07:52:09;100996.56;;;25.94;82.69
35806;BME280;21925;44.608;11.580;2022-08-19T07:54:36;100998.97;;;26.08;82.17
35806;BME280;21925;44.608;11.580;2022-08-19T07:57:03;101001.34;;;26.22;80.45
35806;BME280;21925;44.608;11.580;2022-08-19T07:59:30;101004.28;;;26.19;83.12
35806;BME280;21925;44.608;11.580;2022-08-19T08:01:57;101003.47;;;26.06;78.87
35806;BME280;21925;44.608;11.580;2022-08-19T08:04:27;101009.38;;;26.36;81.11
35806;BME280;21925;44.608;11.580;2022-08-19T08:07:12;101027.00;;;26.24;82.61
35806;BME280;21925;44.608;11.580;2022-08-19T08:09:57;101033.72;;;25.86;85.13
35806;BME280;21925;44.608;11.580;2022-08-19T08:12:30;101035.16;;;25.78;83.85
35806;BME280;21925;44.608;11.580;2022-08-19T08:15:02;101030.97;;;25.38;87.57
35806;BME280;21925;44.608;11.580;2022-08-19T08:17:30;101029.06;;;25.35;88.92
35806;BME280;21925;44.608;11.580;2022-08-19T08:19:57;101033.97;;;25.47;89.07
35806;BME280;21925;44.608;11.580;2022-08-19T08:22:23;101036.34;;;25.33;87.59
35806;BME280;21925;44.608;11.580;2022-08-19T08:25:14;101033.69;;;25.42;90.98
35806;BME280;21925;44.608;11.580;2022-08-19T08:27:43;101029.41;;;25.21;93.69
35806;BME280;21925;44.608;11.580;2022-08-19T08:30:15;101035.00;;;25.53;94.79
35806;BME280;21925;44.608;11.580;2022-08-19T08:32:42;101004.72;;;25.61;94.54
35806;BME280;21925;44.608;11.580;2022-08-19T08:35:11;101028.31;;;25.63;97.84
35806;BME280;21925;44.608;11.580;2022-08-19T08:37:37;101011.59;;;25.88;97.29
35806;BME280;21925;44.608;11.580;2022-08-19T08:42:50;101018.34;;;25.30;99.51
35806;BME280;21925;44.608;11.580;2022-08-19T08:45:20;101004.75;;;25.89;97.73
35806;BME280;21925;44.608;11.580;2022-08-19T08:47:48;101005.47;;;26.46;96.46
35806;BME280;21925;44.608;11.580;2022-08-19T08:50:19;100996.44;;;25.85;97.35
35806;BME280;21925;44.608;11.580;2022-08-19T08:52:52;101005.69;;;25.98;96.03
35806;BME280;21925;44.608;11.580;2022-08-19T08:55:22;101002.72;;;26.30;94.59
35806;BME280;21925;44.608;11.580;2022-08-19T09:00:28;101011.81;;;26.22;93.19
35806;BME280;21925;44.608;11.580;2022-08-19T09:02:56;101025.91;;;25.93;94.35
35806;BME280;21925;44.608;11.580;2022-08-19T09:05:35;101032.06;;;26.17;93.50
35806;BME280;21925;44.608;11.580;2022-08-19T09:08:36;101038.56;;;26.14;94.54
35806;BME280;21925;44.608;11.580;2022-08-19T09:11:08;101042.66;;;26.38;93.24
35806;BME280;21925;44.608;11.580;2022-08-19T09:13:48;101058.69;;;26.41;90.95
35806;BME280;21925;44.608;11.580;2022-08-19T09:16:20;101051.72;;;26.17;92.90
35806;BME280;21925;44.608;11.580;2022-08-19T09:18:52;101047.34;;;25.72;99.10
35806;BME280;21925;44.608;11.580;2022-08-19T09:21:25;101054.50;;;25.60;100.00
35806;BME280;21925;44.608;11.580;2022-08-19T09:23:53;101061.72;;;25.89;98.52
35806;BME280;21925;44.608;11.580;2022-08-19T09:26:23;101060.28;;;25.97;99.50
35806;BME280;21925;44.608;11.580;2022-08-19T09:28:51;101073.78;;;26.59;97.09
35806;BME280;21925;44.608;11.580;2022-08-19T09:31:23;101058.25;;;26.55;94.72
35806;BME280;21925;44.608;11.580;2022-08-19T09:33:51;101073.69;;;26.63;92.32
35806;BME280;21925;44.608;11.580;2022-08-19T09:36:20;101071.78;;;26.84;94.04
35806;BME280;21925;44.608;11.580;2022-08-19T09:38:48;101057.16;;;26.89;91.89
35806;BME280;21925;44.608;11.580;2022-08-19T09:41:18;101073.72;;;26.87;92.72
35806;BME280;21925;44.608;11.580;2022-08-19T09:43:46;101078.00;;;27.29;91.79
35806;BME280;21925;44.608;11.580;2022-08-19T09:46:12;101064.47;;;26.99;86.40
35806;BME280;21925;44.608;11.580;2022-08-19T09:48:39;101060.19;;;27.20;89.53
35806;BME280;21925;44.608;11.580;2022-08-19T09:51:08;101064.56;;;27.45;90.20
35806;BME280;21925;44.608;11.580;2022-08-19T09:53:35;101070.47;;;27.14;88.97
35806;BME280;21925;44.608;11.580;2022-08-19T09:56:02;101065.59;;;26.64;88.06
35806;BME280;21925;44.608;11.580;2022-08-19T09:58:29;101073.38;;;26.85;87.65
35806;BME280;21925;44.608;11.580;2022-08-19T10:00:56;101069.88;;;26.81;87.07
35806;BME280;21925;44.608;11.580;2022-08-19T10:03:23;101061.66;;;27.24;84.70
35806;BME280;21925;44.608;11.580;2022-08-19T10:05:52;101048.69;;;27.39;83.65
35806;BME280;21925;44.608;11.580;2022-08-19T10:08:30;101054.91;;;27.80;83.52
35806;BME280;21925;44.608;11.580;2022-08-19T10:10:56;101059.19;;;27.85;82.34
35806;BME280;21925;44.608;11.580;2022-08-19T10:13:24;101044.03;;;27.57;84.78
35806;BME280;21925;44.608;11.580;2022-08-19T10:16:06;101052.28;;;27.52;84.67
35806;BME280;21925;44.608;11.580;2022-08-19T10:18:33;101049.81;;;28.09;83.83
35806;BME280;21925;44.608;11.580;2022-08-19T10:21:12;101049.97;;;28.48;79.58
35806;BME280;21925;44.608;11.580;2022-08-19T10:23:41;101051.69;;;28.46;79.15
35806;BME280;21925;44.608;11.580;2022-08-19T10:26:12;101040.78;;;27.46;81.20
35806;BME280;21925;44.608;11.580;2022-08-19T10:28:39;101031.41;;;28.38;81.17
35806;BME280;21925;44.608;11.580;2022-08-19T10:31:08;101004.25;;;28.32;76.22
35806;BME280;21925;44.608;11.580;2022-08-19T10:33:35;101044.78;;;29.08;74.41
35806;BME280;21925;44.608;11.580;2022-08-19T10:36:08;101044.81;;;30.00;74.96
35806;BME280;21925;44.608;11.580;2022-08-19T10:38:35;101031.91;;;29.55;74.25
35806;BME280;21925;44.608;11.580;2022-08-19T10:41:16;101025.63;;;29.78;76.13
35806;BME280;21925;44.608;11.580;2022-08-19T10:43:42;101030.94;;;29.49;73.24
35806;BME280;21925;44.608;11.580;2022-08-19T10:46:13;101031.91;;;29.73;75.74
35806;BME280;21925;44.608;11.580;2022-08-19T10:48:43;101021.25;;;29.77;74.02
35806;BME280;21925;44.608;11.580;2022-08-19T10:51:09;101024.69;;;30.16;71.38
35806;BME280;21925;44.608;11.580;2022-08-19T10:54:01;101011.50;;;29.69;69.77
35806;BME280;21925;44.608;11.580;2022-08-19T10:56:28;101001.13;;;29.48;69.47
35806;BME280;21925;44.608;11.580;2022-08-19T10:59:14;101011.91;;;30.89;68.11
35806;BME280;21925;44.608;11.580;2022-08-19T11:01:42;101008.34;;;29.58;68.31
35806;BME280;21925;44.608;11.580;2022-08-19T11:04:08;101016.53;;;29.83;70.26
35806;BME280;21925;44.608;11.580;2022-08-19T11:06:40;101018.22;;;29.53;71.80
35806;BME280;21925;44.608;11.580;2022-08-19T11:09:07;101016.06;;;30.11;69.62
35806;BME280;21925;44.608;11.580;2022-08-19T11:11:33;101019.03;;;29.63;68.57
35806;BME280;21925;44.608;11.580;2022-08-19T11:14:09;101015.25;;;29.75;68.60
35806;BME280;21925;44.608;11.580;2022-08-19T11:16:36;101014.38;;;29.96;68.92
35806;BME280;21925;44.608;11.580;2022-08-19T11:19:03;101025.00;;;30.18;66.31
35806;BME280;21925;44.608;11.580;2022-08-19T11:21:33;101022.75;;;30.40;67.21
35806;BME280;21925;44.608;11.580;2022-08-19T11:24:07;101016.38;;;30.22;65.29
35806;BME280;21925;44.608;11.580;2022-08-19T11:26:33;101010.97;;;31.01;64.05
35806;BME280;21925;44.608;11.580;2022-08-19T11:29:00;101010.41;;;31.35;64.44
35806;BME280;21925;44.608;11.580;2022-08-19T11:31:31;101001.09;;;31.43;64.68
35806;BME280;21925;44.608;11.580;2022-08-19T11:33:58;101005.88;;;31.05;65.69
35806;BME280;21925;44.608;11.580;2022-08-19T11:36:25;101014.41;;;30.64;65.67
35806;BME280;21925;44.608;11.580;2022-08-19T11:38:51;100998.91;;;31.15;62.84
35806;BME280;21925;44.608;11.580;2022-08-19T11:41:19;101001.13;;;31.11;64.17
35806;BME280;21925;44.608;11.580;2022-08-19T11:43:46;101002.44;;;31.57;63.43
35806;BME280;21925;44.608;11.580;2022-08-19T11:46:14;101012.25;;;31.70;64.41
35806;BME280;21925;44.608;11.580;2022-08-19T11:48:40;101006.75;;;31.20;64.30
35806;BME280;21925;44.608;11.580;2022-08-19T11:51:10;101007.94;;;31.28;62.47
35806;BME280;21925;44.608;11.580;2022-08-19T11:53:37;100997.16;;;31.17;64.13
35806;BME280;21925;44.608;11.580;2022-08-19T11:56:04;100997.09;;;30.94;63.31
35806;BME280;21925;44.608;11.580;2022-08-19T11:58:30;101003.25;;;31.25;62.05
35806;BME280;21925;44.608;11.580;2022-08-19T12:00:57;100994.97;;;30.80;63.91
35806;BME280;21925;44.608;11.580;2022-08-19T12:03:23;100996.13;;;29.97;65.81
35806;BME280;21925;44.608;11.580;2022-08-19T12:05:49;100980.06;;;30.20;63.85
35806;BME280;21925;44.608;11.580;2022-08-19T12:08:16;100984.25;;;30.84;66.05
35806;BME280;21925;44.608;11.580;2022-08-19T12:10:43;100983.63;;;30.80;65.12
35806;BME280;21925;44.608;11.580;2022-08-19T12:13:12;100979.06;;;30.41;64.71
35806;BME280;21925;44.608;11.580;2022-08-19T12:15:42;100984.44;;;30.21;62.48
35806;BME280;21925;44.608;11.580;2022-08-19T12:18:08;100967.09;;;30.87;64.41
35806;BME280;21925;44.608;11.580;2022-08-19T12:20:39;100968.56;;;31.06;62.17
35806;BME280;21925;44.608;11.580;2022-08-19T12:23:07;100969.28;;;30.60;65.07
35806;BME280;21925;44.608;11.580;2022-08-19T12:25:44;100977.94;;;30.57;67.43
35806;BME280;21925;44.608;11.580;2022-08-19T12:28:21;100975.88;;;30.57;63.23
35806;BME280;21925;44.608;11.580;2022-08-19T12:30:47;100973.00;;;30.66;62.62
35806;BME280;21925;44.608;11.580;2022-08-19T12:33:17;100975.94;;;31.13;62.28
35806;BME280;21925;44.608;11.580;2022-08-19T12:35:44;100965.16;;;31.26;60.99
35806;BME280;21925;44.608;11.580;2022-08-19T12:38:15;100982.59;;;30.69;64.75
35806;BME280;21925;44.608;11.580;2022-08-19T12:40:41;100969.63;;;30.53;63.04
35806;BME280;21925;44.608;11.580;2022-08-19T12:43:10;100972.44;;;30.85;62.83
35806;BME280;21925;44.608;11.580;2022-08-19T12:45:37;100977.38;;;30.17;62.84
35806;BME280;21925;44.608;11.580;2022-08-19T12:48:04;100963.06;;;30.79;61.32
35806;BME280;21925;44.608;11.580;2022-08-19T12:50:30;100974.59;;;30.67;61.30
35806;BME280;21925;44.608;11.580;2022-08-19T12:52:57;100977.38;;;30.76;59.58
35806;BME280;21925;44.608;11.580;2022-08-19T12:55:23;100957.25;;;31.30;61.41